sensor_id;sensor_type;location;lat;lon;timestamp;pressure;altitude;pressure_sealevel;temperature;humidity
23473;BME280;11909;52.516;13.564;2023-02-01T00:01:50;100433.34;;;3.63;95.13
23473;BME280;11909;52.516;13.564;2023-02-01T00:04:18;100424.59;;;3.61;94.02
23473;BME280;11909;52.516;13.564;2023-02-01T00:06:46;100433.59;;;3.61;93.69
23473;BME280;11909;52.516;13.564;2023-02-01T00:09:14;100438.53;;;3.64;93.73
23473;BME280;11909;52.516;13.564;2023-02-01T00:11:41;100429.56;;;3.64;94.87
23473;BME280;11909;52.516;13.564;2023-02-01T00:14:11;100435.25;;;3.62;95.01
23473;BME280;11909;52.516;13.564;2023-02-01T00:16:39;100428.38;;;3.59;95.60
23473;BME280;11909;52.516;13.564;2023-02-01T00:19:10;100441.50;;;3.51;95.97
23473;BME280;11909;52.516;13.564;2023-02-01T00:21:38;100431.28;;;3.41;95.99
23473;BME280;11909;52.516;13.564;2023-02-01T00:24:07;100428.81;;;3.39;95.93
23473;BME280;11909;52.516;13.564;2023-02-01T00:26:38;100438.13;;;3.43;96.23
23473;BME280;11909;52.516;13.564;2023-02-01T00:29:09;100443.28;;;3.45;95.26
23473;BME280;11909;52.516;13.564;2023-02-01T00:31:39;100430.06;;;3.49;94.86
23473;BME280;11909;52.516;13.564;2023-02-01T00:34:08;100438.00;;;3.50;93.44
23473;BME280;11909;52.516;13.564;2023-02-01T00:36:36;100432.16;;;3.58;92.59
23473;BME280;11909;52.516;13.564;2023-02-01T00:39:04;100437.41;;;3.48;93.51
23473;BME280;11909;52.516;13.564;2023-02-01T00:41:32;100429.16;;;3.43;93.41
23473;BME280;11909;52.516;13.564;2023-02-01T00:43:59;100434.13;;;3.46;92.57
23473;BME280;11909;52.516;13.564;2023-02-01T00:46:27;100433.25;;;3.57;91.45
23473;BME280;11909;52.516;13.564;2023-02-01T00:48:56;100447.88;;;3.56;90.87
23473;BME280;11909;52.516;13.564;2023-02-01T00:51:27;100446.44;;;3.54;91.08
23473;BME280;11909;52.516;13.564;2023-02-01T00:53:55;100454.75;;;3.47;91.38
23473;BME280;11909;52.516;13.564;2023-02-01T00:56:23;100452.50;;;3.44;91.94
23473;BME280;11909;52.516;13.564;2023-02-01T00:58:51;100442.00;;;3.48;91.68
23473;BME280;11909;52.516;13.564;2023-02-01T01:01:20;100455.34;;;3.49;91.50
23473;BME280;11909;52.516;13.564;2023-02-01T01:03:49;100456.72;;;3.52;91.54
23473;BME280;11909;52.516;13.564;2023-02-01T01:06:20;100452.09;;;3.64;90.68
23473;BME280;11909;52.516;13.564;2023-02-01T01:08:51;100453.75;;;3.65;90.63
23473;BME280;11909;52.516;13.564;2023-02-01T01:11:22;100458.34;;;3.65;90.43
23473;BME280;11909;52.516;13.564;2023-02-01T01:13:51;100456.25;;;3.55;90.63
23473;BME280;11909;52.516;13.564;2023-02-01T01:16:20;100460.19;;;3.47;91.61
23473;BME280;11909;52.516;13.564;2023-02-01T01:18:50;100440.84;;;3.43;91.90
23473;BME280;11909;52.516;13.564;2023-02-01T01:21:19;100452.72;;;3.54;91.77
23473;BME280;11909;52.516;13.564;2023-02-01T01:23:47;100443.28;;;3.45;92.24
23473;BME280;11909;52.516;13.564;2023-02-01T01:26:17;100434.91;;;3.47;91.79
23473;BME280;11909;52.516;13.564;2023-02-01T01:28:45;100444.22;;;3.51;91.50
23473;BME280;11909;52.516;13.564;2023-02-01T01:31:15;100439.63;;;3.51;92.19
23473;BME280;11909;52.516;13.564;2023-02-01T01:33:44;100417.56;;;3.48;92.39
23473;BME280;11909;52.516;13.564;2023-02-01T01:36:12;100428.56;;;3.41;92.56
23473;BME280;11909;52.516;13.564;2023-02-01T01:38:41;100427.88;;;3.34;93.33
23473;BME280;11909;52.516;13.564;2023-02-01T01:41:14;100409.34;;;3.42;92.77
23473;BME280;11909;52.516;13.564;2023-02-01T01:43:53;100408.22;;;3.26;94.01
23473;BME280;11909;52.516;13.564;2023-02-01T01:46:24;100407.25;;;3.33;93.05
23473;BME280;11909;52.516;13.564;2023-02-01T01:48:58;100411.00;;;3.43;91.37
23473;BME280;11909;52.516;13.564;2023-02-01T01:51:29;100421.59;;;3.45;91.28
23473;BME280;11909;52.516;13.564;2023-02-01T01:54:02;100418.69;;;3.35;92.17
23473;BME280;11909;52.516;13.564;2023-02-01T01:56:33;100398.63;;;3.36;91.65
23473;BME280;11909;52.516;13.564;2023-02-01T01:59:02;100408.75;;;3.40;91.06
23473;BME280;11909;52.516;13.564;2023-02-01T02:01:31;100402.84;;;3.43;91.28
23473;BME280;11909;52.516;13.564;2023-02-01T02:04:00;100403.56;;;3.39;91.31
23473;BME280;11909;52.516;13.564;2023-02-01T02:06:37;100405.69;;;3.37;91.91
23473;BME280;11909;52.516;13.564;2023-02-01T02:09:07;100408.53;;;3.30;92.01
23473;BME280;11909;52.516;13.564;2023-02-01T02:11:35;100418.66;;;3.47;90.39
23473;BME280;11909;52.516;13.564;2023-02-01T02:14:04;100409.78;;;3.51;90.00
23473;BME280;11909;52.516;13.564;2023-02-01T02:23:09;100414.50;;;3.44;90.35
23473;BME280;11909;52.516;13.564;2023-02-01T02:26:05;100419.63;;;3.40;90.43
23473;BME280;11909;52.516;13.564;2023-02-01T02:29:00;100417.34;;;3.49;89.63
23473;BME280;11909;52.516;13.564;2023-02-01T02:32:01;100397.47;;;3.61;89.17
23473;BME280;11909;52.516;13.564;2023-02-01T02:34:34;100402.81;;;3.55;89.64
23473;BME280;11909;52.516;13.564;2023-02-01T02:37:14;100389.47;;;3.54;89.91
23473;BME280;11909;52.516;13.564;2023-02-01T02:39:50;100385.38;;;3.51;89.86
23473;BME280;11909;52.516;13.564;2023-02-01T02:42:26;100389.38;;;3.49;90.02
23473;BME280;11909;52.516;13.564;2023-02-01T02:45:17;100390.06;;;3.56;89.06
23473;BME280;11909;52.516;13.564;2023-02-01T02:48:11;100386.22;;;3.40;90.32
23473;BME280;11909;52.516;13.564;2023-02-01T02:50:44;100382.31;;;3.48;90.23
23473;BME280;11909;52.516;13.564;2023-02-01T02:53:34;100382.78;;;3.44;90.01
23473;BME280;11909;52.516;13.564;2023-02-01T02:56:23;100395.06;;;3.47;89.57
23473;BME280;11909;52.516;13.564;2023-02-01T02:59:14;100397.38;;;3.55;89.28
23473;BME280;11909;52.516;13.564;2023-02-01T03:02:00;100384.16;;;3.59;88.95
23473;BME280;11909;52.516;13.564;2023-02-01T03:04:46;100388.31;;;3.50;89.27
23473;BME280;11909;52.516;13.564;2023-02-01T03:07:54;100386.19;;;3.52;89.48
23473;BME280;11909;52.516;13.564;2023-02-01T03:10:31;100387.09;;;3.57;89.25
23473;BME280;11909;52.516;13.564;2023-02-01T03:13:03;100388.19;;;3.56;89.07
23473;BME280;11909;52.516;13.564;2023-02-01T03:15:36;100374.75;;;3.50;89.27
23473;BME280;11909;52.516;13.564;2023-02-01T03:18:11;100372.28;;;3.48;89.60
23473;BME280;11909;52.516;13.564;2023-02-01T03:20:44;100364.97;;;3.49;89.92
23473;BME280;11909;52.516;13.564;2023-02-01T03:23:18;100364.72;;;3.50;89.94
23473;BME280;11909;52.516;13.564;2023-02-01T03:25:48;100357.75;;;3.54;89.86
23473;BME280;11909;52.516;13.564;2023-02-01T03:28:18;100346.53;;;3.51;89.67
23473;BME280;11909;52.516;13.564;2023-02-01T03:30:47;100361.63;;;3.58;89.21
23473;BME280;11909;52.516;13.564;2023-02-01T03:33:17;100348.19;;;3.52;90.03
23473;BME280;11909;52.516;13.564;2023-02-01T03:35:55;100342.75;;;3.52;90.05
23473;BME280;11909;52.516;13.564;2023-02-01T03:38:30;100339.25;;;3.51;89.78
23473;BME280;11909;52.516;13.564;2023-02-01T03:41:04;100334.13;;;3.55;90.17
23473;BME280;11909;52.516;13.564;2023-02-01T03:43:42;100333.41;;;3.59;88.90
23473;BME280;11909;52.516;13.564;2023-02-01T03:46:20;100331.03;;;3.63;89.25
23473;BME280;11909;52.516;13.564;2023-02-01T03:48:50;100334.13;;;3.55;89.23
23473;BME280;11909;52.516;13.564;2023-02-01T03:51:20;100334.00;;;3.62;89.05
23473;BME280;11909;52.516;13.564;2023-02-01T03:53:52;100328.41;;;3.51;89.59
23473;BME280;11909;52.516;13.564;2023-02-01T03:56:21;100322.56;;;3.59;89.66
23473;BME280;11909;52.516;13.564;2023-02-01T03:58:50;100326.16;;;3.48;90.08
23473;BME280;11909;52.516;13.564;2023-02-01T04:01:27;100330.03;;;3.52;90.43
23473;BME280;11909;52.516;13.564;2023-02-01T04:03:56;100329.06;;;3.58;89.13
23473;BME280;11909;52.516;13.564;2023-02-01T04:06:25;100324.28;;;3.66;88.74
23473;BME280;11909;52.516;13.564;2023-02-01T04:08:54;100328.66;;;3.67;88.37
23473;BME280;11909;52.516;13.564;2023-02-01T04:11:22;100332.19;;;3.67;88.24
23473;BME280;11909;52.516;13.564;2023-02-01T04:13:49;100339.03;;;3.70;88.35
23473;BME280;11909;52.516;13.564;2023-02-01T04:16:17;100328.19;;;3.70;88.43
23473;BME280;11909;52.516;13.564;2023-02-01T04:18:45;100339.44;;;3.79;87.74
23473;BME280;11909;52.516;13.564;2023-02-01T04:21:12;100326.84;;;3.72;88.17
23473;BME280;11909;52.516;13.564;2023-02-01T04:23:40;100333.53;;;3.82;88.09
23473;BME280;11909;52.516;13.564;2023-02-01T04:26:09;100336.50;;;3.80;87.75
23473;BME280;11909;52.516;13.564;2023-02-01T04:28:37;100327.34;;;3.86;87.55
23473;BME280;11909;52.516;13.564;2023-02-01T04:31:04;100323.84;;;3.86;87.44
23473;BME280;11909;52.516;13.564;2023-02-01T04:33:32;100334.63;;;3.81;88.37
23473;BME280;11909;52.516;13.564;2023-02-01T04:36:00;100328.69;;;3.84;87.60
23473;BME280;11909;52.516;13.564;2023-02-01T04:38:27;100333.47;;;3.94;87.45
23473;BME280;11909;52.516;13.564;2023-02-01T04:40:58;100331.56;;;3.94;87.46
23473;BME280;11909;52.516;13.564;2023-02-01T04:43:28;100329.34;;;3.91;86.89
23473;BME280;11909;52.516;13.564;2023-02-01T04:45:55;100322.59;;;3.94;86.88
23473;BME280;11909;52.516;13.564;2023-02-01T04:48:23;100321.53;;;3.95;87.08
23473;BME280;11909;52.516;13.564;2023-02-01T04:50:51;100328.84;;;3.94;86.84
23473;BME280;11909;52.516;13.564;2023-02-01T04:53:18;100323.50;;;3.99;86.68
23473;BME280;11909;52.516;13.564;2023-02-01T04:55:48;100325.56;;;3.92;87.39
23473;BME280;11909;52.516;13.564;2023-02-01T04:58:16;100316.41;;;3.98;87.03
23473;BME280;11909;52.516;13.564;2023-02-01T05:00:45;100325.81;;;4.08;86.51
23473;BME280;11909;52.516;13.564;2023-02-01T05:03:12;100314.28;;;4.00;86.57
23473;BME280;11909;52.516;13.564;2023-02-01T05:05:41;100318.00;;;3.94;87.51
23473;BME280;11909;52.516;13.564;2023-02-01T05:08:08;100318.81;;;4.12;86.26
23473;BME280;11909;52.516;13.564;2023-02-01T05:10:36;100309.75;;;4.06;86.62
23473;BME280;11909;52.516;13.564;2023-02-01T05:13:04;100315.53;;;4.10;86.52
23473;BME280;11909;52.516;13.564;2023-02-01T05:15:51;100307.38;;;4.10;86.01
23473;BME280;11909;52.516;13.564;2023-02-01T05:18:19;100307.94;;;4.12;86.48
23473;BME280;11909;52.516;13.564;2023-02-01T05:20:47;100305.06;;;4.19;85.81
23473;BME280;11909;52.516;13.564;2023-02-01T05:23:15;100305.31;;;4.17;85.48
23473;BME280;11909;52.516;13.564;2023-02-01T05:25:43;100304.56;;;4.22;85.83
23473;BME280;11909;52.516;13.564;2023-02-01T05:28:11;100302.84;;;4.15;85.73
23473;BME280;11909;52.516;13.564;2023-02-01T05:30:38;100302.59;;;4.17;86.00
23473;BME280;11909;52.516;13.564;2023-02-01T05:33:09;100293.78;;;4.27;85.12
23473;BME280;11909;52.516;13.564;2023-02-01T05:35:36;100297.72;;;4.19;85.87
23473;BME280;11909;52.516;13.564;2023-02-01T05:38:04;100290.47;;;4.25;84.89
23473;BME280;11909;52.516;13.564;2023-02-01T05:40:32;100289.19;;;4.27;85.32
23473;BME280;11909;52.516;13.564;2023-02-01T05:42:59;100298.69;;;4.30;84.53
23473;BME280;11909;52.516;13.564;2023-02-01T05:45:27;100295.09;;;4.24;85.37
23473;BME280;11909;52.516;13.564;2023-02-01T05:47:55;100295.66;;;4.26;85.18
23473;BME280;11909;52.516;13.564;2023-02-01T05:50:24;100290.41;;;4.20;85.38
23473;BME280;11909;52.516;13.564;2023-02-01T05:52:51;100291.56;;;4.24;85.85
23473;BME280;11909;52.516;13.564;2023-02-01T05:55:19;100282.72;;;4.34;85.21
23473;BME280;11909;52.516;13.564;2023-02-01T05:57:47;100288.41;;;4.32;85.55
23473;BME280;11909;52.516;13.564;2023-02-01T06:00:15;100279.94;;;4.28;85.23
23473;BME280;11909;52.516;13.564;2023-02-01T06:02:43;100279.94;;;4.28;84.85
23473;BME280;11909;52.516;13.564;2023-02-01T06:05:10;100262.00;;;4.27;84.87
23473;BME280;11909;52.516;13.564;2023-02-01T06:07:39;100268.25;;;4.28;85.52
23473;BME280;11909;52.516;13.564;2023-02-01T06:10:09;100266.09;;;4.30;85.05
23473;BME280;11909;52.516;13.564;2023-02-01T06:12:36;100274.09;;;4.37;84.50
23473;BME280;11909;52.516;13.564;2023-02-01T06:15:05;100276.47;;;4.33;84.72
23473;BME280;11909;52.516;13.564;2023-02-01T06:17:33;100281.31;;;4.31;84.76
23473;BME280;11909;52.516;13.564;2023-02-01T06:20:01;100264.72;;;4.27;85.26
23473;BME280;11909;52.516;13.564;2023-02-01T06:22:29;100273.44;;;4.29;85.34
23473;BME280;11909;52.516;13.564;2023-02-01T06:24:58;100277.13;;;4.23;86.00
23473;BME280;11909;52.516;13.564;2023-02-01T06:27:26;100267.91;;;4.24;87.16
23473;BME280;11909;52.516;13.564;2023-02-01T06:29:54;100275.69;;;4.15;88.16
23473;BME280;11909;52.516;13.564;2023-02-01T06:32:22;100260.13;;;4.11;89.39
23473;BME280;11909;52.516;13.564;2023-02-01T06:34:50;100257.66;;;4.09;90.11
23473;BME280;11909;52.516;13.564;2023-02-01T06:37:18;100253.88;;;4.10;91.09
23473;BME280;11909;52.516;13.564;2023-02-01T06:39:46;100252.81;;;3.94;92.69
23473;BME280;11909;52.516;13.564;2023-02-01T06:42:15;100259.56;;;4.09;91.58
23473;BME280;11909;52.516;13.564;2023-02-01T06:44:43;100248.53;;;3.98;93.44
23473;BME280;11909;52.516;13.564;2023-02-01T06:47:11;100243.38;;;3.97;94.16
23473;BME280;11909;52.516;13.564;2023-02-01T06:49:38;100255.03;;;3.97;92.75
23473;BME280;11909;52.516;13.564;2023-02-01T06:52:06;100246.19;;;3.85;93.72
23473;BME280;11909;52.516;13.564;2023-02-01T06:54:34;100236.06;;;3.80;93.21
23473;BME280;11909;52.516;13.564;2023-02-01T06:57:03;100234.56;;;3.90;93.45
23473;BME280;11909;52.516;13.564;2023-02-01T06:59:32;100238.34;;;3.88;93.63
23473;BME280;11909;52.516;13.564;2023-02-01T07:02:00;100222.31;;;3.87;93.55
23473;BME280;11909;52.516;13.564;2023-02-01T07:04:28;100223.97;;;3.88;92.80
23473;BME280;11909;52.516;13.564;2023-02-01T07:06:56;100211.97;;;3.84;93.00
23473;BME280;11909;52.516;13.564;2023-02-01T07:09:24;100229.38;;;3.88;92.20
23473;BME280;11909;52.516;13.564;2023-02-01T07:11:51;100207.41;;;3.90;91.75
23473;BME280;11909;52.516;13.564;2023-02-01T07:14:19;100200.03;;;3.85;92.77
23473;BME280;11909;52.516;13.564;2023-02-01T07:16:48;100221.09;;;3.95;91.93
23473;BME280;11909;52.516;13.564;2023-02-01T07:19:17;100210.69;;;3.92;91.03
23473;BME280;11909;52.516;13.564;2023-02-01T07:21:45;100205.25;;;3.92;90.84
23473;BME280;11909;52.516;13.564;2023-02-01T07:24:12;100197.63;;;3.88;91.32
23473;BME280;11909;52.516;13.564;2023-02-01T07:26:40;100198.78;;;3.93;91.23
23473;BME280;11909;52.516;13.564;2023-02-01T07:29:08;100200.16;;;3.95;91.38
23473;BME280;11909;52.516;13.564;2023-02-01T07:31:36;100194.91;;;3.88;91.67
23473;BME280;11909;52.516;13.564;2023-02-01T07:34:05;100197.06;;;3.86;91.51
23473;BME280;11909;52.516;13.564;2023-02-01T07:36:33;100192.97;;;3.84;92.43
23473;BME280;11909;52.516;13.564;2023-02-01T07:39:02;100185.63;;;3.84;92.87
23473;BME280;11909;52.516;13.564;2023-02-01T07:41:30;100182.09;;;3.84;92.74
23473;BME280;11909;52.516;13.564;2023-02-01T07:43:58;100170.41;;;3.83;92.85
23473;BME280;11909;52.516;13.564;2023-02-01T07:46:26;100177.47;;;3.84;93.45
23473;BME280;11909;52.516;13.564;2023-02-01T07:48:54;100178.94;;;3.92;92.85
23473;BME280;11909;52.516;13.564;2023-02-01T07:51:22;100169.00;;;3.98;92.39
23473;BME280;11909;52.516;13.564;2023-02-01T07:53:50;100169.22;;;3.96;92.44
23473;BME280;11909;52.516;13.564;2023-02-01T07:56:21;100162.16;;;3.95;93.54
23473;BME280;11909;52.516;13.564;2023-02-01T07:58:50;100171.53;;;3.87;94.71
23473;BME280;11909;52.516;13.564;2023-02-01T08:01:20;100170.34;;;3.78;95.72
23473;BME280;11909;52.516;13.564;2023-02-01T08:03:52;100163.28;;;3.77;97.80
23473;BME280;11909;52.516;13.564;2023-02-01T08:06:20;100167.88;;;3.59;98.91
23473;BME280;11909;52.516;13.564;2023-02-01T08:08:50;100164.03;;;3.55;100.00
23473;BME280;11909;52.516;13.564;2023-02-01T08:11:19;100174.56;;;3.52;100.00
23473;BME280;11909;52.516;13.564;2023-02-01T08:13:48;100178.56;;;3.32;100.00
23473;BME280;11909;52.516;13.564;2023-02-01T08:16:17;100149.38;;;3.22;100.00
23473;BME280;11909;52.516;13.564;2023-02-01T08:18:45;100160.91;;;3.12;100.00
23473;BME280;11909;52.516;13.564;2023-02-01T08:21:15;100162.72;;;3.07;100.00
23473;BME280;11909;52.516;13.564;2023-02-01T08:23:43;100163.09;;;2.98;100.00
23473;BME280;11909;52.516;13.564;2023-02-01T08:26:14;100163.09;;;2.98;100.00
23473;BME280;11909;52.516;13.564;2023-02-01T08:28:44;100163.09;;;2.98;100.00
23473;BME280;11909;52.516;13.564;2023-02-01T08:31:14;100156.91;;;2.86;100.00
23473;BME280;11909;52.516;13.564;2023-02-01T08:33:43;100164.91;;;2.93;100.00
23473;BME280;11909;52.516;13.564;2023-02-01T08:36:11;100168.78;;;2.97;100.00
23473;BME280;11909;52.516;13.564;2023-02-01T08:38:39;100159.50;;;2.93;100.00
23473;BME280;11909;52.516;13.564;2023-02-01T08:41:09;100176.41;;;3.00;100.00
23473;BME280;11909;52.516;13.564;2023-02-01T08:43:38;100164.50;;;3.01;100.00
23473;BME280;11909;52.516;13.564;2023-02-01T08:46:06;100159.81;;;2.96;100.00
23473;BME280;11909;52.516;13.564;2023-02-01T08:48:35;100165.78;;;2.98;100.00
23473;BME280;11909;52.516;13.564;2023-02-01T08:51:03;100173.53;;;2.90;100.00
23473;BME280;11909;52.516;13.564;2023-02-01T08:53:31;100165.47;;;2.95;100.00
23473;BME280;11909;52.516;13.564;2023-02-01T08:55:59;100172.28;;;2.97;100.00
23473;BME280;11909;52.516;13.564;2023-02-01T08:58:28;100164.91;;;2.93;100.00
23473;BME280;11909;52.516;13.564;2023-02-01T09:00:57;100173.84;;;2.93;100.00
23473;BME280;11909;52.516;13.564;2023-02-01T09:03:24;100163.94;;;2.99;100.00
23473;BME280;11909;52.516;13.564;2023-02-01T09:05:52;100175.84;;;2.98;100.00
23473;BME280;11909;52.516;13.564;2023-02-01T09:08:26;100177.88;;;2.91;100.00
23473;BME280;11909;52.516;13.564;2023-02-01T09:10:58;100173.03;;;2.93;100.00
23473;BME280;11909;52.516;13.564;2023-02-01T09:13:28;100178.69;;;2.91;100.00
23473;BME280;11909;52.516;13.564;2023-02-01T09:15:57;100173.13;;;2.98;100.00
23473;BME280;11909;52.516;13.564;2023-02-01T09:18:26;100190.41;;;3.09;100.00
23473;BME280;11909;52.516;13.564;2023-02-01T09:20:54;100186.28;;;3.06;100.00
23473;BME280;11909;52.516;13.564;2023-02-01T09:23:21;100182.13;;;3.15;100.00
23473;BME280;11909;52.516;13.564;2023-02-01T09:25:49;100195.25;;;3.07;100.00
23473;BME280;11909;52.516;13.564;2023-02-01T09:28:18;100190.25;;;3.15;100.00
23473;BME280;11909;52.516;13.564;2023-02-01T09:30:46;100204.28;;;3.12;100.00
23473;BME280;11909;52.516;13.564;2023-02-01T09:33:15;100202.41;;;3.30;100.00
23473;BME280;11909;52.516;13.564;2023-02-01T09:35:43;100217.31;;;3.27;100.00
23473;BME280;11909;52.516;13.564;2023-02-01T09:38:11;100209.81;;;3.35;100.00
23473;BME280;11909;52.516;13.564;2023-02-01T09:40:42;100213.38;;;3.35;100.00
23473;BME280;11909;52.516;13.564;2023-02-01T09:43:24;100208.41;;;3.32;100.00
23473;BME280;11909;52.516;13.564;2023-02-01T09:46:05;100217.38;;;3.33;100.00
23473;BME280;11909;52.516;13.564;2023-02-01T09:48:41;100218.53;;;3.37;100.00
23473;BME280;11909;52.516;13.564;2023-02-01T09:51:15;100226.66;;;3.37;100.00
23473;BME280;11909;52.516;13.564;2023-02-01T09:53:46;100228.56;;;3.36;100.00
23473;BME280;11909;52.516;13.564;2023-02-01T09:56:21;100225.94;;;3.41;100.00
23473;BME280;11909;52.516;13.564;2023-02-01T09:58:55;100230.22;;;3.37;100.00
23473;BME280;11909;52.516;13.564;2023-02-01T10:01:26;100240.56;;;3.40;100.00
23473;BME280;11909;52.516;13.564;2023-02-01T10:04:01;100232.16;;;3.42;100.00
23473;BME280;11909;52.516;13.564;2023-02-01T10:06:44;100247.66;;;3.41;100.00
23473;BME280;11909;52.516;13.564;2023-02-01T10:09:35;100248.44;;;3.42;100.00
23473;BME280;11909;52.516;13.564;2023-02-01T10:12:42;100239.59;;;3.47;100.00
23473;BME280;11909;52.516;13.564;2023-02-01T10:15:24;100241.38;;;3.41;100.00
23473;BME280;11909;52.516;13.564;2023-02-01T10:18:14;100246.81;;;3.41;100.00
23473;BME280;11909;52.516;13.564;2023-02-01T10:20:55;100254.94;;;3.41;100.00
23473;BME280;11909;52.516;13.564;2023-02-01T10:23:44;100243.44;;;3.34;100.00
23473;BME280;11909;52.516;13.564;2023-02-01T10:26:19;100260.63;;;3.39;100.00
23473;BME280;11909;52.516;13.564;2023-02-01T10:28:50;100258.16;;;3.38;100.00
23473;BME280;11909;52.516;13.564;2023-02-01T10:31:20;100255.22;;;3.39;100.00
23473;BME280;11909;52.516;13.564;2023-02-01T10:33:52;100255.44;;;3.38;100.00
23473;BME280;11909;52.516;13.564;2023-02-01T10:36:28;100267.94;;;3.39;100.00
23473;BME280;11909;52.516;13.564;2023-02-01T10:38:57;100267.63;;;3.35;100.00
23473;BME280;11909;52.516;13.564;2023-02-01T10:41:31;100262.19;;;3.35;100.00
23473;BME280;11909;52.516;13.564;2023-02-01T10:44:00;100248.88;;;3.51;100.00
23473;BME280;11909;52.516;13.564;2023-02-01T10:46:30;100253.16;;;3.47;100.00
23473;BME280;11909;52.516;13.564;2023-02-01T10:49:00;100244.44;;;3.44;100.00
23473;BME280;11909;52.516;13.564;2023-02-01T10:51:38;100249.28;;;3.59;100.00
23473;BME280;11909;52.516;13.564;2023-02-01T10:54:15;100252.84;;;3.60;100.00
23473;BME280;11909;52.516;13.564;2023-02-01T10:56:44;100250.53;;;3.69;100.00
23473;BME280;11909;52.516;13.564;2023-02-01T10:59:16;100247.81;;;3.69;100.00
23473;BME280;11909;52.516;13.564;2023-02-01T11:01:46;100256.44;;;3.66;100.00
23473;BME280;11909;52.516;13.564;2023-02-01T11:04:15;100257.78;;;3.63;100.00
23473;BME280;11909;52.516;13.564;2023-02-01T11:06:46;100250.03;;;3.55;100.00
23473;BME280;11909;52.516;13.564;2023-02-01T11:09:18;100251.84;;;3.49;100.00
23473;BME280;11909;52.516;13.564;2023-02-01T11:11:58;100235.38;;;3.56;100.00
23473;BME280;11909;52.516;13.564;2023-02-01T11:14:37;100236.78;;;3.41;100.00
23473;BME280;11909;52.516;13.564;2023-02-01T11:17:27;100226.09;;;3.52;100.00
23473;BME280;11909;52.516;13.564;2023-02-01T11:19:59;100243.63;;;3.61;100.00
23473;BME280;11909;52.516;13.564;2023-02-01T11:22:29;100238.53;;;3.65;100.00
23473;BME280;11909;52.516;13.564;2023-02-01T11:24:59;100236.56;;;3.60;100.00
23473;BME280;11909;52.516;13.564;2023-02-01T11:27:29;100243.13;;;3.64;100.00
23473;BME280;11909;52.516;13.564;2023-02-01T11:30:00;100233.84;;;3.60;100.00
23473;BME280;11909;52.516;13.564;2023-02-01T11:32:30;100226.84;;;3.81;100.00
23473;BME280;11909;52.516;13.564;2023-02-01T11:35:01;100224.97;;;3.82;100.00
23473;BME280;11909;52.516;13.564;2023-02-01T11:37:35;100231.94;;;3.95;100.00
23473;BME280;11909;52.516;13.564;2023-02-01T11:40:23;100220.06;;;4.01;100.00
23473;BME280;11909;52.516;13.564;2023-02-01T11:42:54;100213.03;;;4.22;100.00
23473;BME280;11909;52.516;13.564;2023-02-01T11:45:25;100203.88;;;4.28;100.00
23473;BME280;11909;52.516;13.564;2023-02-01T11:47:54;100204.50;;;4.36;100.00
23473;BME280;11909;52.516;13.564;2023-02-01T11:50:35;100205.66;;;4.40;100.00
23473;BME280;11909;52.516;13.564;2023-02-01T11:53:20;100207.34;;;4.46;100.00
23473;BME280;11909;52.516;13.564;2023-02-01T11:56:11;100204.84;;;4.39;100.00
23473;BME280;11909;52.516;13.564;2023-02-01T12:01:42;100191.16;;;4.34;100.00
23473;BME280;11909;52.516;13.564;2023-02-01T12:04:31;100195.28;;;4.37;100.00
23473;BME280;11909;52.516;13.564;2023-02-01T12:07:15;100196.84;;;4.55;100.00
23473;BME280;11909;52.516;13.564;2023-02-01T12:09:56;100210.59;;;4.65;97.66
23473;BME280;11909;52.516;13.564;2023-02-01T12:12:37;100197.81;;;4.66;97.45
23473;BME280;11909;52.516;13.564;2023-02-01T12:15:19;100189.22;;;4.74;97.31
23473;BME280;11909;52.516;13.564;2023-02-01T12:18:11;100185.00;;;4.88;96.69
23473;BME280;11909;52.516;13.564;2023-02-01T12:20:57;100190.03;;;5.02;94.44
23473;BME280;11909;52.516;13.564;2023-02-01T12:23:37;100193.84;;;5.01;92.76
23473;BME280;11909;52.516;13.564;2023-02-01T12:26:30;100179.69;;;4.99;92.67
23473;BME280;11909;52.516;13.564;2023-02-01T12:29:13;100191.88;;;4.96;92.36
23473;BME280;11909;52.516;13.564;2023-02-01T12:32:02;100175.97;;;4.83;92.33
23473;BME280;11909;52.516;13.564;2023-02-01T12:34:50;100178.53;;;4.95;91.83
23473;BME280;11909;52.516;13.564;2023-02-01T12:37:34;100172.00;;;4.96;91.69
23473;BME280;11909;52.516;13.564;2023-02-01T12:40:18;100163.75;;;4.85;92.38
23473;BME280;11909;52.516;13.564;2023-02-01T12:42:56;100164.00;;;4.84;91.45
23473;BME280;11909;52.516;13.564;2023-02-01T12:45:31;100142.06;;;4.91;92.99
23473;BME280;11909;52.516;13.564;2023-02-01T12:48:09;100146.13;;;4.88;92.36
23473;BME280;11909;52.516;13.564;2023-02-01T12:50:48;100135.69;;;4.80;93.96
23473;BME280;11909;52.516;13.564;2023-02-01T12:53:23;100131.34;;;4.79;91.68
23473;BME280;11909;52.516;13.564;2023-02-01T12:55:54;100118.88;;;4.83;92.56
23473;BME280;11909;52.516;13.564;2023-02-01T12:58:27;100131.13;;;4.85;92.37
23473;BME280;11909;52.516;13.564;2023-02-01T13:00:59;100123.19;;;4.79;91.52
23473;BME280;11909;52.516;13.564;2023-02-01T13:03:34;100116.41;;;4.81;92.46
23473;BME280;11909;52.516;13.564;2023-02-01T13:06:07;100119.66;;;4.78;92.65
23473;BME280;11909;52.516;13.564;2023-02-01T13:08:43;100123.03;;;4.91;91.59
23473;BME280;11909;52.516;13.564;2023-02-01T13:11:15;100126.25;;;4.87;91.78
23473;BME280;11909;52.516;13.564;2023-02-01T13:13:53;100129.66;;;5.00;89.92
23473;BME280;11909;52.516;13.564;2023-02-01T13:16:27;100126.81;;;4.90;91.19
23473;BME280;11909;52.516;13.564;2023-02-01T13:19:08;100147.84;;;4.99;89.19
23473;BME280;11909;52.516;13.564;2023-02-01T13:21:39;100188.97;;;5.03;90.20
23473;BME280;11909;52.516;13.564;2023-02-01T13:24:30;100197.09;;;4.76;88.04